Weather observations for the past three days for
Sutton, Braxton County Airport
Imperial (Metric)
Date Time (edt) Wind (mph) Vis. (mi.) Weather Sky Cond. Temperature (ºF) Relative Humidity Wind Chill (°F) Heat Index (°F) Pressure Precipitation (in)
Air Dwpt 6 hour altimeter (in) sea level (mb) 1 hr 3 hr 6 hr
Max. Min.
01 00:15 Calm 8.00 Mostly Cloudy BKN060 71.1 71.1 100% 30.12 0.0
31 23:55 Calm 8.00 Partly Cloudy FEW050 SCT060 70.2 70.2 100% 30.12 0.0
31 23:35 Calm 1.00 Fog/Mist CLR 69.8 69.8 100% 30.13 0.0
31 23:15 Calm 6.00 Fog/Mist CLR 70.5 70.5 100% 30.13 0.0
31 22:55 Calm 6.00 Fog/Mist CLR 70.7 70.7 100% 30.13 0.0
31 22:35 Calm 9.00 Partly Cloudy SCT190 71.4 71.4 100% 30.13 0.0
31 22:15 Calm 8.00 Mostly Cloudy BKN180 71.6 71.6 100% 30.13 0.0
31 21:55 Calm 8.00 Overcast OVC190 71.4 71.4 100% 30.12 0.0
31 21:35 Calm 9.00 Mostly Cloudy BKN190 70.9 70.9 100% 30.12 0.0
31 21:15 Calm 9.00 Partly Cloudy SCT180 70.2 70.2 100% 30.11 0.0
31 20:55 Calm 5.00 Fog/Mist CLR 70.7 70.5 99% 30.1 0.0
31 20:35 Calm 9.00 Fair CLR 72.1 71.4 98% 30.1 0.0
31 20:15 Calm 9.00 Fair CLR 72.5 71.8 98% 30.1 0.0
31 19:35 Calm 9.00 Fair CLR 74.7 73.4 96% 30.1 0.0
31 19:15 Calm 9.00 Fair CLR 76.1 74.1 94% 76 30.1 0.0
31 18:55 Calm 8.00 Fair CLR 78.6 73.2 84% 82 30.11 0.0
31 18:35 Calm 10.00 Fair CLR 80.1 74.3 83% 85 30.11 0.0
31 18:15 Calm 10.00 Fair CLR 80.2 76.3 88% 86 30.11 0.0
31 17:55 Calm 10.00 Fair CLR 80.8 75 83% 86 30.12 0.0
31 17:35 Calm 10.00 A Few Clouds FEW150 81.1 75.2 82% 87 30.12 0.0
31 17:15 Calm 10.00 Partly Cloudy FEW150 SCT350 81.3 75.4 82% 88 30.12 0.0
31 16:55 Calm 10.00 Mostly Cloudy FEW041 BKN090 BKN150 84.2 73.2 70% 91 30.12 0.0
31 16:35 Calm 10.00 Mostly Cloudy FEW043 BKN090 85.1 72.3 66% 91 30.12 0.0
31 16:15 W 6 10.00 Fair CLR 86.7 71.2 60% 93 30.12 0.0
31 15:55 Calm 10.00 Fair CLR 86 71.6 62% 92 30.13 0.0
31 15:35 Calm 10.00 Fair CLR 85.6 71.2 62% 91 30.13 0.0
31 15:15 Calm 10.00 A Few Clouds FEW080 85.3 72 64% 91 30.14 0.0
31 14:55 Calm 10.00 Mostly Cloudy BKN080 83.8 71.8 67% 89 30.15 0.0
31 14:35 Vrbl 5 10.00 A Few Clouds FEW080 85.3 72.5 66% 92 30.15 0.0
31 14:15 Calm 10.00 Partly Cloudy FEW080 SCT160 SCT300 83.5 72.1 69% 89 30.16 0.0
31 13:55 W 6 10.00 Partly Cloudy FEW150 SCT340 83.1 71.6 83.1 66.7 68% 88 30.16 0.0
31 13:35 Calm 10.00 Partly Cloudy SCT140 82 71.6 71% 87 30.17 0.0
31 13:15 Vrbl 5 10.00 Partly Cloudy SCT130 SCT370 81.5 71.6 72% 86 30.17 0.0
31 12:55 Calm 10.00 Mostly Cloudy FEW060 BKN130 81.3 73 76% 86 30.17 0.0
31 12:35 Calm 10.00 Partly Cloudy SCT130 81 73.2 77% 86 30.17 0.0
31 12:15 Calm 9.00 Partly Cloudy SCT130 80.8 72.9 77% 85 30.17 0.0
31 11:55 Calm 10.00 Partly Cloudy FEW140 SCT380 81 71.6 73% 85 30.17 0.0
31 11:35 Vrbl 3 10.00 Fair CLR 81.7 71.8 72% 86 30.17 0.0
31 11:15 W 5 10.00 Fair CLR 81.3 71.6 72% 86 30.18 0.0
31 10:55 Calm 10.00 A Few Clouds FEW180 80.2 71.2 74% 84 30.18 0.0
31 10:35 Calm 10.00 A Few Clouds FEW120 78.8 71.6 79% 82 30.17 0.0
31 10:15 Calm 10.00 A Few Clouds FEW120 78.6 71.8 80% 81 30.17 0.0
31 09:55 Calm 10.00 Partly Cloudy SCT120 SCT150 74.5 71.1 89% 30.17 0.0
31 09:35 Calm 10.00 Partly Cloudy FEW120 SCT190 72.3 71.4 97% 30.17 0.0
31 09:15 Calm 10.00 Partly Cloudy SCT190 70.2 70.2 100% 30.17 0.0
31 08:55 Calm 9.00 Partly Cloudy SCT180 68.9 68.9 100% 30.16 0.0
31 08:35 Calm 10.00 Partly Cloudy SCT190 68.2 68.2 100% 30.16 0.0
31 08:15 Calm 10.00 Partly Cloudy FEW160 SCT190 67.5 67.5 100% 30.16 0.0
31 07:55 Calm 2.00 Fog/Mist FEW160 66 66 68.5 64 100% 30.16 0.0
31 07:35 Calm 3.00 Fog/Mist CLR 65.1 65.1 100% 30.15 0.0
31 07:15 Calm 0.50 Fog CLR 64.4 64.4 100% 30.15 0.0
31 06:55 Calm 0.50 Fog CLR 64.9 64.9 100% 30.14 0.0
31 06:35 Calm 4.00 Fog/Mist CLR 64.9 64.9 100% 30.14 0.0
31 06:15 Calm 0.50 Fog VV001 64.8 64.8 100% 30.14 0.0
31 05:55 Calm 1.00 Fog/Mist VV001 65.1 65.1 100% 30.13 0.0
31 05:35 Calm 0.50 Fog VV001 65.7 65.7 100% 30.13 0.0
31 05:15 Calm 0.75 Fog/Mist VV001 65.3 65.3 100% 30.13 0.0
31 04:55 Calm 1.00 Fog/Mist CLR 65.8 65.8 100% 30.12 0.0
31 04:35 Calm 3.00 Fog/Mist CLR 65.8 65.8 100% 30.12 0.0
31 04:15 Calm 0.75 Fog/Mist CLR 65.5 65.5 100% 30.12 0.0
31 03:55 Calm 2.50 Fog/Mist CLR 65.7 65.7 100% 30.12 0.0
31 03:35 Calm 0.75 Fog/Mist CLR 66 66 100% 30.12 0.0
31 03:15 Calm 4.00 Fog/Mist CLR 66.6 66.6 100% 30.11 0.0
31 02:55 Calm 2.50 Fog/Mist BKN160 66.2 66.2 100% 30.12 0.0
31 02:35 Calm 9.00 Partly Cloudy SCT150 67.3 67.3 100% 30.12 0.0
31 02:15 Calm 9.00 A Few Clouds FEW150 68 68 100% 30.13 0.0
31 01:55 Calm 9.00 Partly Cloudy SCT100 69.3 69.3 71.8 69.3 100% 30.14 0.0
31 01:35 Calm 10.00 Overcast OVC100 70.5 70.5 100% 30.14 0.0
31 01:15 Calm 10.00 Overcast OVC100 70.7 70.7 100% 30.14 0.0
31 00:55 Calm 8.00 Overcast OVC100 70.5 70.5 100% 30.14 0.0
31 00:35 Calm 10.00 Mostly Cloudy BKN100 70.5 70.5 100% 30.14 0.0
31 00:15 Calm 10.00 Overcast OVC100 70.7 70.7 100% 30.14 0.0
30 23:55 Calm 10.00 Overcast OVC100 70.9 70.9 100% 30.15 0.0
30 23:35 Calm 9.00 Overcast OVC100 70.7 70.7 100% 30.15 0.0
30 23:15 Calm 10.00 Overcast OVC100 70.7 70.7 100% 30.15 0.0
30 22:55 Calm 10.00 Overcast OVC100 70.9 70.9 100% 30.15 0.0
30 22:35 Calm 10.00 Overcast OVC100 71.1 71.1 100% 30.15 0.0
30 22:15 Calm 10.00 Overcast OVC100 71.2 71.2 100% 30.15 0.0
30 21:55 Calm 9.00 Overcast OVC110 71.2 71.2 100% 30.15 0.0
30 21:35 Calm 10.00 Mostly Cloudy BKN120 71.1 71.1 100% 30.15 0.0
30 21:15 Calm 7.00 Mostly Cloudy FEW095 BKN120 71.2 71.2 100% 30.15 0.0
30 20:55 Calm 7.00 Light Rain FEW090 BKN120 70.2 70.2 100% 30.14 0.0
30 20:35 Calm 9.00 Partly Cloudy SCT090 70.7 70.7 100% 30.13 0.0
30 20:15 Calm 10.00 Fair CLR 69.6 69.6 100% 30.12 0.0
30 19:55 Calm 10.00 Fair CLR 72.5 71.8 87.1 71.4 98% 30.12 0.0 0.08
30 19:35 Calm 10.00 Fair CLR 72.9 72.1 98% 30.11 0.0
30 19:15 Calm 10.00 Fair CLR 73 72.1 97% 30.11 0.0
30 18:55 Calm 10.00 Fair CLR 75.9 72.1 88% 76 30.12 0.0
30 18:35 Calm 10.00 Fair CLR 75.2 72.1 90% 74 30.12 0.0
30 18:15 Calm 10.00 Fair CLR 77.7 70.7 79% 80 30.12 0.0
30 17:55 Calm 10.00 A Few Clouds FEW130 77.5 71.6 82% 79 30.13 0.0
30 17:35 Calm 10.00 Mostly Cloudy FEW046 BKN120 BKN140 77 70.7 81% 79 30.13 0.0
30 17:15 Calm 5.00 Fog/Mist SCT070 BKN095 BKN120 73 71.1 94% 30.14 0.0
30 16:55 Calm 8.00 Light Rain FEW035 BKN085 75 70 84% 75 30.14 0.0 0.08
30 16:35 W 8 9.00 A Few Clouds FEW022 76.8 72.9 88% 78 30.15 0.0
30 16:15 Calm 10.00 Fair CLR 78.4 73 84% 81 30.14 0.0
30 15:55 Calm 10.00 Partly Cloudy SCT095 SCT110 77.7 70.9 80% 80 30.13 0.0 0.07
30 15:35 Calm 10.00 Mostly Cloudy BKN100 73.2 71.2 94% 30.14 0.0 0.07
30 15:15 Calm 6.00 Light Rain Fog/Mist SCT060 BKN095 72 70.9 96% 30.15 0.0 0.07
30 14:55 NW 8 3.00 Light Rain Fog/Mist FEW026 SCT033 BKN045 OVC090 74.1 71.1 90% 30.18 0.0 0.01
30 14:35 Vrbl 6 10.00 Mostly Cloudy BKN090 85.1 69.6 60% 89 30.16 0.0
30 14:15 Calm 10.00 Fair CLR 86.4 70.2 59% 91 30.16 0.0
30 13:55 Vrbl 3 10.00 A Few Clouds FEW037 86 71.2 86.4 66.2 61% 92 30.16 0.0
30 13:35 Vrbl 7 10.00 Mostly Cloudy SCT036 BKN065 86 70.9 61% 91 30.17 0.0
30 13:15 Vrbl 5 10.00 A Few Clouds FEW038 85.1 70.9 63% 90 30.18 0.0
30 12:55 Vrbl 6 10.00 Fair CLR 84.9 70.5 62% 90 30.19 0.0
30 12:35 W 3 10.00 Fair CLR 84.6 70.7 63% 89 30.18 0.0
30 12:15 Vrbl 3 10.00 Fair CLR 84.6 70.2 62% 89 30.19 0.0
30 11:55 Vrbl 5 10.00 Fair CLR 82.9 69.6 64% 87 30.2 0.0
30 11:35 Vrbl 6 10.00 Fair CLR 82.8 69.8 65% 87 30.2 0.0
30 11:15 Vrbl 5 10.00 Fair CLR 82.2 69.6 66% 86 30.2 0.0
30 10:55 Calm 10.00 Fair CLR 81.9 69.6 67% 85 30.19 0.0
30 10:35 Vrbl 6 10.00 Fair CLR 80.8 68.9 67% 84 30.2 0.0
30 10:15 Calm 10.00 Fair CLR 80.4 69.8 70% 84 30.19 0.0
30 09:55 Calm 10.00 Fair CLR 77.9 69.4 75% 80 30.18 0.0
30 09:35 Calm 10.00 Fair CLR 76.8 70.5 81% 78 30.18 0.0
30 09:15 Calm 10.00 Fair CLR 74.3 70.7 89% 30.18 0.0
30 08:55 Calm 10.00 Fair CLR 70.9 70.2 98% 30.19 0.0
30 08:35 Calm 10.00 Fair CLR 69.3 69.3 100% 30.19 0.0
30 08:15 Calm 8.00 Fair CLR 67.5 67.5 100% 30.19 0.0
30 07:55 Calm 0.75 Fog/Mist CLR 65.3 65.3 67.1 61.9 100% 30.19 0.0
30 07:35 Calm 1.50 Fog/Mist CLR 63.9 63.9 100% 30.18 0.0
30 07:15 Calm 1.25 Fog/Mist CLR 63.1 63.1 100% 30.18 0.0
30 06:55 Calm 0.25 Fog CLR 62.4 62.4 100% 30.18 0.0
30 06:35 Calm 0.50 Fog CLR 62.4 62.4 100% 30.17 0.0
30 06:15 Calm 0.50 Fog CLR 62.4 62.4 100% 30.17 0.0
30 05:55 Calm 0.50 Fog CLR 62.8 62.8 100% 30.17 0.0
30 05:35 Calm 7.00 Fair CLR 62.6 62.6 100% 30.17 0.0
30 05:15 Calm 3.00 Fog/Mist CLR 63.3 63.3 100% 30.17 0.0
30 04:55 Calm 0.75 Fog/Mist CLR 63.3 63.3 100% 30.17 0.0
30 04:35 Calm 1.25 Fog/Mist CLR 63.1 63.1 100% 30.17 0.0
30 04:15 Calm 9.00 Fair CLR 64.9 64.9 100% 30.17 0.0
30 03:55 Calm 4.00 Fog/Mist CLR 64.2 64.2 100% 30.17 0.0
30 03:35 Calm 4.00 Fog/Mist CLR 64.4 64.4 100% 30.16 0.0
30 03:15 Calm 5.00 Fog/Mist CLR 64.8 64.8 100% 30.16 0.0
30 02:55 Calm 9.00 Mostly Cloudy FEW060 SCT075 BKN095 66.6 66.6 100% 30.17 0.0
30 02:35 Calm 8.00 Mostly Cloudy BKN060 BKN080 BKN095 66.4 66.4 100% 30.17 0.0
30 02:15 Calm 1.75 Fog/Mist SCT060 65.3 65.3 100% 30.18 0.0
30 01:55 Calm 2.50 Fog/Mist CLR 66.2 66.2 73.4 65.5 100% 30.18 0.0
30 01:35 Calm 4.00 Fog/Mist CLR 66 66 100% 30.19 0.0
30 01:15 Calm 5.00 Fog/Mist FEW065 66.6 66.6 100% 30.18 0.0
30 00:55 Calm 8.00 A Few Clouds FEW090 67.5 67.5 100% 30.18 0.0
30 00:35 Calm 8.00 A Few Clouds FEW090 67.6 67.6 100% 30.18 0.0
30 00:15 Calm 10.00 Fair CLR 68 68 100% 30.18 0.0
29 23:55 Calm 9.00 A Few Clouds FEW075 67.1 67.1 100% 30.18 0.0
29 23:35 Calm 9.00 Fair CLR 67.6 67.6 100% 30.17 0.0
29 23:15 Calm 9.00 Fair CLR 69.3 69.3 100% 30.17 0.0
29 22:55 Calm 10.00 A Few Clouds FEW050 70.5 70.3 99% 30.17 0.0
29 22:35 Calm 10.00 Partly Cloudy SCT055 SCT070 SCT090 70.9 70.7 99% 30.17 0.0
29 22:15 Calm 10.00 Partly Cloudy SCT055 70.9 70.7 99% 30.17 0.0
29 21:55 Calm 7.00 Fair CLR 69.6 69.6 100% 30.17 0.0
29 21:35 Calm 8.00 Fair CLR 68.4 68.4 100% 30.17 0.0
29 21:15 Calm 9.00 Fair CLR 68.2 68 99% 30.16 0.0
29 20:55 Calm 10.00 Fair CLR 70.2 69.4 98% 30.15 0.0
29 20:35 Calm 7.00 Fair CLR 70.9 69.4 95% 30.15 0.0
29 20:15 Calm 10.00 Fair CLR 72.3 70.2 93% 30.14 0.0
29 19:55 Calm 9.00 Fair CLR 75.2 70.9 86.4 75.2 87% 75 30.14 0.0
29 19:35 Calm 9.00 Partly Cloudy SCT060 76.3 71.8 86% 77 30.14 0.0
29 19:15 Calm 9.00 Mostly Cloudy BKN060 78.1 72.1 82% 81 30.15 0.0
29 18:55 Calm 10.00 Partly Cloudy SCT055 80.6 71.4 74% 85 30.14 0.0
29 18:35 Calm 10.00 Partly Cloudy SCT055 81.9 69.6 67% 85 30.14 0.0
29 18:15 Calm 10.00 A Few Clouds FEW060 82.8 69.8 65% 87 30.14 0.0
29 17:55 Calm 10.00 Fair CLR 84.4 68.5 59% 88 30.14 0.0
29 17:35 Calm 9.00 Fair CLR 84.9 67.5 56% 88 30.14 0.0
29 17:15 Calm 10.00 A Few Clouds FEW055 84.9 67.6 56% 88 30.14 0.0
29 16:55 Calm 10.00 A Few Clouds FEW055 84 68.4 59% 87 30.15 0.0
29 16:35 Calm 9.00 Fair CLR 83.3 67.3 59% 86 30.15 0.0
29 16:15 Calm 10.00 Fair CLR 85.5 67.8 56% 89 30.16 0.0
29 15:55 W 5 10.00 A Few Clouds FEW065 85.3 67.8 56% 89 30.16 0.0
29 15:35 Calm 10.00 Partly Cloudy SCT041 85.5 67.6 55% 89 30.16 0.0
29 15:15 Calm 9.00 Mostly Cloudy BKN042 82.2 67.1 60% 85 30.17 0.0
29 14:55 Vrbl 3 10.00 Partly Cloudy SCT043 83.7 68.2 60% 87 30.18 0.0
29 14:35 Calm 10.00 A Few Clouds FEW044 84 66.6 56% 86 30.19 0.0
29 14:15 Calm 10.00 Partly Cloudy SCT042 SCT060 84.2 68 58% 87 30.19 0.0
29 13:55 Vrbl 3 9.00 Mostly Cloudy BKN040 82.6 67.5 83.3 61.3 60% 85 30.19 0.0
29 13:35 Calm 9.00 A Few Clouds FEW038 82.4 68.2 62% 85 30.19 0.0
29 13:15 Calm 9.00 Fair CLR 82.6 66.9 59% 85 30.2 0.0
29 12:55 Calm 9.00 Fair CLR 81.5 67.8 63% 84 30.21 0.0
29 12:35 Calm 9.00 Fair CLR 80.1 68 67% 83 30.21 0.0
29 12:15 Calm 9.00 Fair CLR 80.1 66.9 64% 82 30.22 0.0
29 11:55 Calm 10.00 Fair CLR 78.6 66.6 67% 81 30.23 0.0
29 11:35 Calm 10.00 Fair CLR 78.3 67.5 70% 80 30.23 0.0
29 11:15 Calm 10.00 A Few Clouds FEW047 76.6 66.2 70% 78 30.23 0.0
29 10:55 Calm 10.00 Partly Cloudy SCT047 76.8 66 69% 79 30.23 0.0
29 10:35 Calm 10.00 Fair CLR 75.2 65.1 71% 77 30.22 0.0
29 10:15 Calm 10.00 Partly Cloudy SCT045 72.5 66.7 82% 30.22 0.0
29 09:55 Calm 9.00 Mostly Cloudy BKN044 70.2 66.7 89% 30.21 0.0
29 09:35 Calm 10.00 Mostly Cloudy BKN044 66.7 66.7 100% 30.21 0.0
29 09:15 Calm 8.00 Mostly Cloudy BKN044 64.6 64.6 100% 30.21 0.0
29 08:55 Calm 9.00 Fair CLR 63.5 63.5 100% 30.22 0.0
29 08:35 Calm 9.00 Fair CLR 62.8 62.8 100% 30.22 0.0
29 08:15 Calm 6.00 Fog/Mist SCT002 62.4 62.4 100% 30.21 0.0
29 07:55 Calm 2.00 Fog/Mist BKN002 61.2 61.2 63 59.4 100% 30.21 0.0
29 07:35 Calm 0.50 Fog VV002 61.2 61.2 100% 30.21 0.0
29 07:15 Calm 0.25 Fog VV002 60.8 60.8 100% 30.21 0.0
29 06:55 Calm 0.15 Fog VV002 60.8 60.8 100% 30.2 0.0
29 06:35 Calm 0.25 Fog VV002 60.8 60.8 100% 30.2 0.0
29 06:15 Calm 1.00 Fog/Mist OVC002 61.2 61.2 100% 30.19 0.0
29 05:55 Calm 3.00 Fog/Mist OVC002 61.7 61.7 100% 30.19 0.0
29 05:35 Calm 8.00 Overcast OVC003 61.2 61.2 100% 30.19 0.0
29 05:15 Calm 8.00 Overcast OVC003 60.6 60.6 100% 30.19 0.0
29 04:55 Calm 3.00 Fog/Mist SCT002 BKN070 59.5 59.5 100% 30.19 0.0
29 04:35 Calm 7.00 A Few Clouds FEW080 60.3 60.3 100% 30.18 0.0
29 04:15 Calm 8.00 Fair CLR 60.4 60.4 100% 30.18 0.0
29 03:55 Calm 3.00 Fog/Mist SCT002 BKN070 61.2 61.2 100% 30.18 0.0
29 03:35 Calm 0.50 Fog VV002 61.9 61.9 100% 30.17 0.0
29 03:15 Calm 0.50 Fog VV002 62.4 62.4 100% 30.17 0.0
29 02:55 Calm 0.50 Fog VV002 62.8 62.8 100% 30.17 0.0
29 02:35 Calm 0.75 Fog/Mist VV002 61.5 61.5 100% 30.17 0.0
29 02:15 Calm 1.75 Fog/Mist CLR 59.7 59.7 100% 30.17 0.0
29 01:55 Calm 8.00 Fair CLR 61.9 61.9 69.6 61.5 100% 30.17 0.0
29 01:35 Calm 7.00 Fair CLR 62.1 62.1 100% 30.18 0.0
29 01:15 E 3 8.00 Fair CLR 62.1 62.1 100% 30.18 0.0
29 00:55 Calm 7.00 Fair CLR 62.6 62.6 100% 30.18 0.0
29 00:35 Calm 3.00 Fog/Mist CLR 61.7 61.7 100% 30.17 0.0
Date Time (edt) Wind (mph) Vis. (mi.) Weather Sky Cond. Air Dwpt Max. Min. Relative Humidity Wind Chill (°F) Heat Index (°F) altimeter (in) sea level (mb) 1 hr 3 hr 6 hr
6 hour
Temperature (ºF) Pressure Precipitation (in)